Time;durP1;ratioP1;P1;durP2;ratioP2;P2;SDS_P1;SDS_P2;PMS_P1;PMS_P2;Temp;Humidity;BMP_temperature;BMP_pressure;BME280_temperature;BME280_humidity;BME280_pressure;Samples;Min_cycle;Max_cycle;Signal;HPM_P1;HPM_P2
2022/07/16 00:01:26;;;;;;;5.18;4.45;;;29.80;1.00;;;;;;5149046;27;20114;-60
2022/07/16 00:03:57;;;;;;;4.90;4.38;;;29.80;1.00;;;;;;5150695;27;20110;-59
2022/07/16 00:06:25;;;;;;;4.07;3.80;;;29.70;1.00;;;;;;5151028;27;20030;-59
2022/07/16 00:08:51;;;;;;;4.35;4.05;;;29.70;1.00;;;;;;5148567;27;20364;-59
2022/07/16 00:11:17;;;;;;;4.20;3.83;;;29.60;1.00;;;;;;5143609;27;20022;-60
2022/07/16 00:13:43;;;;;;;4.05;3.72;;;29.80;1.00;;;;;;5151730;27;20083;-59
2022/07/16 00:16:09;;;;;;;4.93;4.43;;;29.70;1.00;;;;;;5148360;27;20125;-63
2022/07/16 00:21:19;;;;;;;4.55;3.58;;;29.70;1.00;;;;;;5151764;27;20080;-60
2022/07/16 00:23:45;;;;;;;3.95;3.60;;;29.70;1.00;;;;;;5152098;27;20050;-59
2022/07/16 00:26:11;;;;;;;4.13;3.85;;;29.70;1.00;;;;;;5153497;27;20019;-59
2022/07/16 00:28:36;;;;;;;4.30;3.90;;;29.70;1.00;;;;;;5151050;27;20474;-58
2022/07/16 00:31:03;;;;;;;4.68;3.42;;;29.60;1.00;;;;;;5151640;27;20563;-58
2022/07/16 00:33:28;;;;;;;5.57;4.00;;;29.60;1.00;;;;;;5152517;27;20023;-58
2022/07/16 00:35:54;;;;;;;4.15;3.78;;;29.60;1.00;;;;;;5150354;27;20050;-58
2022/07/16 00:38:20;;;;;;;5.32;3.92;;;29.50;1.00;;;;;;5150732;27;20437;-59
2022/07/16 00:40:45;;;;;;;3.83;3.45;;;29.50;1.00;;;;;;5150398;27;20094;-59
2022/07/16 00:43:12;;;;;;;4.05;3.65;;;29.50;1.00;;;;;;5154514;27;20037;-59
2022/07/16 00:45:38;;;;;;;6.15;3.33;;;29.50;1.00;;;;;;5150327;27;20033;-59
2022/07/16 00:48:04;;;;;;;4.28;3.33;;;29.60;1.00;;;;;;5152909;27;20027;-59
2022/07/16 00:50:30;;;;;;;3.67;3.47;;;29.50;1.00;;;;;;5150499;27;20030;-59
2022/07/16 00:52:58;;;;;;;4.28;3.88;;;29.50;1.00;;;;;;5149547;27;20384;-59
2022/07/16 00:55:24;;;;;;;4.15;3.80;;;29.50;1.00;;;;;;5149548;27;20034;-59
2022/07/16 00:57:49;;;;;;;3.17;2.97;;;29.50;1.00;;;;;;5152295;27;20023;-59
2022/07/16 01:00:15;;;;;;;4.93;3.70;;;29.50;1.00;;;;;;5150524;27;20430;-59
2022/07/16 01:02:41;;;;;;;3.42;3.13;;;29.60;1.00;;;;;;5144369;27;20019;-59
2022/07/16 01:05:07;;;;;;;3.70;3.40;;;29.60;1.00;;;;;;5146396;27;20495;-59
2022/07/16 01:07:33;;;;;;;3.80;3.60;;;29.60;1.00;;;;;;5154008;27;20028;-59
2022/07/16 01:10:03;;;;;;;4.65;4.15;;;29.60;1.00;;;;;;5150519;27;20027;-58
2022/07/16 01:12:29;;;;;;;3.70;3.40;;;29.60;1.00;;;;;;5138608;27;20026;-58
2022/07/16 01:14:56;;;;;;;4.05;3.67;;;29.60;1.00;;;;;;5146721;27;20078;-59
2022/07/16 01:17:22;;;;;;;5.40;3.33;;;29.60;1.00;;;;;;5152586;27;20046;-59
2022/07/16 01:19:48;;;;;;;3.70;3.40;;;29.70;1.00;;;;;;5146808;27;20039;-60
2022/07/16 01:22:18;;;;;;;5.15;3.60;;;29.70;1.00;;;;;;5142080;27;20072;-58
2022/07/16 01:24:44;;;;;;;3.75;3.55;;;29.60;1.00;;;;;;5138610;27;20015;-59
2022/07/16 01:27:10;;;;;;;5.53;3.80;;;29.60;1.00;;;;;;5143719;27;20382;-61
2022/07/16 01:29:35;;;;;;;5.00;3.72;;;29.60;1.00;;;;;;5145254;27;20027;-60
2022/07/16 01:32:01;;;;;;;4.18;3.60;;;29.60;1.00;;;;;;5149539;27;20467;-60
2022/07/16 01:34:27;;;;;;;6.22;3.40;;;29.50;1.00;;;;;;5140182;27;20038;-59
2022/07/16 01:36:57;;;;;;;5.20;4.10;;;29.50;1.00;;;;;;5153973;27;20098;-59
2022/07/16 01:39:25;;;;;;;4.30;3.90;;;29.50;1.00;;;;;;5150421;27;20046;-59
2022/07/16 01:41:56;;;;;;;4.82;3.85;;;29.50;1.00;;;;;;5152495;27;20035;-59
2022/07/16 01:44:24;;;;;;;6.07;4.22;;;29.60;1.00;;;;;;5148555;27;20023;-59
2022/07/16 01:46:54;;;;;;;5.00;4.10;;;29.60;1.00;;;;;;5153319;27;20109;-59
2022/07/16 01:49:20;;;;;;;5.43;4.60;;;29.60;1.00;;;;;;5150272;27;20034;-60
2022/07/16 01:51:46;;;;;;;4.43;4.10;;;29.60;1.00;;;;;;5150978;27;20015;-60
2022/07/16 01:54:11;;;;;;;5.25;4.38;;;29.60;1.00;;;;;;5146932;27;20546;-59
2022/07/16 01:56:37;;;;;;;4.55;4.00;;;29.60;1.00;;;;;;5145661;27;20037;-59
2022/07/16 01:59:03;;;;;;;5.35;4.03;;;29.60;1.00;;;;;;5139447;27;20034;-60
2022/07/16 02:01:29;;;;;;;4.35;4.00;;;29.50;1.00;;;;;;5141826;27;20464;-60
2022/07/16 02:03:54;;;;;;;4.60;4.20;;;29.50;1.00;;;;;;5149302;27;20027;-59
2022/07/16 02:06:20;;;;;;;4.78;4.35;;;29.50;1.00;;;;;;5140729;27;20026;-59
2022/07/16 02:08:46;;;;;;;5.32;4.10;;;29.50;1.00;;;;;;5138299;27;20030;-59
2022/07/16 02:11:11;;;;;;;4.53;4.15;;;29.50;1.00;;;;;;5151954;27;20033;-60
2022/07/16 02:13:37;;;;;;;4.57;4.13;;;29.50;1.00;;;;;;5149913;27;20472;-59
2022/07/16 02:16:03;;;;;;;6.53;4.40;;;29.50;1.00;;;;;;5150952;27;20106;-60
2022/07/16 02:18:29;;;;;;;6.95;4.35;;;29.60;1.00;;;;;;5144256;27;20046;-60
2022/07/16 02:20:55;;;;;;;4.65;4.25;;;29.60;1.00;;;;;;5145442;27;20039;-59
2022/07/16 02:23:21;;;;;;;4.97;4.53;;;29.60;1.00;;;;;;5141313;27;20065;-59
2022/07/16 02:25:46;;;;;;;5.90;4.32;;;29.50;1.00;;;;;;5147061;27;20047;-59
2022/07/16 02:28:12;;;;;;;5.50;3.97;;;29.60;1.00;;;;;;5141512;27;20026;-59
2022/07/16 02:30:40;;;;;;;5.18;4.60;;;29.80;1.00;;;;;;5145850;27;20015;-59
2022/07/16 02:33:07;;;;;;;4.25;3.95;;;29.70;1.00;;;;;;5151728;27;20126;-59
2022/07/16 02:35:33;;;;;;;5.03;4.53;;;29.60;1.00;;;;;;5148449;27;20038;-59
2022/07/16 02:37:59;;;;;;;5.18;4.43;;;29.60;1.00;;;;;;5144977;27;20485;-59
2022/07/16 02:40:25;;;;;;;5.25;4.80;;;29.60;1.00;;;;;;5145581;27;20042;-59
2022/07/16 02:42:51;;;;;;;4.72;4.15;;;29.60;1.00;;;;;;5150157;27;20046;-59
2022/07/16 02:45:17;;;;;;;7.63;4.45;;;29.50;1.00;;;;;;5151693;27;20495;-59
2022/07/16 02:47:42;;;;;;;6.45;4.60;;;29.50;1.00;;;;;;5137392;27;20027;-60
2022/07/16 02:50:09;;;;;;;6.03;4.63;;;29.40;1.00;;;;;;5147971;27;20026;-59
2022/07/16 02:52:35;;;;;;;7.00;4.82;;;29.50;1.00;;;;;;5149446;27;20038;-59
2022/07/16 02:55:01;;;;;;;5.10;4.60;;;29.60;1.00;;;;;;5145751;27;20015;-60
2022/07/16 02:57:27;;;;;;;7.45;5.10;;;29.60;1.00;;;;;;5151610;27;20064;-60
2022/07/16 02:59:53;;;;;;;6.95;4.65;;;29.50;1.00;;;;;;5144966;27;20039;-59
2022/07/16 03:02:19;;;;;;;4.93;4.53;;;29.70;1.00;;;;;;5140482;27;20029;-59
2022/07/16 03:04:44;;;;;;;5.72;4.22;;;29.50;1.00;;;;;;5141024;27;20022;-59
2022/07/16 03:07:10;;;;;;;4.78;4.38;;;29.50;1.00;;;;;;5140184;27;20153;-59
2022/07/16 03:09:35;;;;;;;5.97;4.10;;;29.30;1.00;;;;;;5149567;27;20019;-58
2022/07/16 03:12:01;;;;;;;5.68;4.55;;;29.20;1.00;;;;;;5136102;27;20026;-58
2022/07/16 03:14:27;;;;;;;6.10;4.65;;;29.30;1.00;;;;;;5146203;27;20041;-59
2022/07/16 03:16:52;;;;;;;5.75;4.40;;;29.20;1.00;;;;;;5151187;27;20019;-59
2022/07/16 03:19:18;;;;;;;6.82;4.10;;;29.30;1.00;;;;;;5155525;27;20549;-59
2022/07/16 03:21:43;;;;;;;6.75;4.20;;;29.30;1.00;;;;;;5151914;27;20058;-60
2022/07/16 03:24:09;;;;;;;5.13;4.57;;;29.40;1.00;;;;;;5151808;27;20394;-60
2022/07/16 03:26:35;;;;;;;7.75;4.70;;;29.20;1.00;;;;;;5151149;27;20030;-60
2022/07/16 03:29:00;;;;;;;8.40;4.43;;;29.20;1.00;;;;;;5151578;27;20026;-59
2022/07/16 03:31:26;;;;;;;5.30;4.22;;;29.20;1.00;;;;;;5152571;27;20050;-59
2022/07/16 03:33:51;;;;;;;5.45;3.95;;;29.20;1.00;;;;;;5149087;27;20107;-59
2022/07/16 03:36:17;;;;;;;5.85;4.57;;;29.10;1.00;;;;;;5153201;27;20085;-60
2022/07/16 03:41:26;;;;;;;5.63;4.47;;;29.00;1.00;;;;;;5152296;27;20403;-59
2022/07/16 03:43:52;;;;;;;6.78;4.97;;;29.10;1.00;;;;;;5150308;27;20015;-59
2022/07/16 03:46:18;;;;;;;5.78;4.82;;;29.00;1.00;;;;;;5140464;27;20091;-59
2022/07/16 03:48:44;;;;;;;5.05;4.60;;;28.90;1.00;;;;;;5147303;27;20022;-59
2022/07/16 03:51:10;;;;;;;6.82;4.75;;;28.80;1.00;;;;;;5147897;27;20449;-59
2022/07/16 03:53:37;;;;;;;4.82;4.28;;;28.60;1.00;;;;;;5152858;27;20117;-59
2022/07/16 03:56:03;;;;;;;4.38;3.97;;;28.80;1.00;;;;;;5150178;27;20018;-59
2022/07/16 03:58:28;;;;;;;4.43;4.03;;;28.70;1.00;;;;;;5151106;27;20030;-59
2022/07/16 04:00:54;;;;;;;5.50;4.25;;;28.70;1.00;;;;;;5149067;27;20042;-59
2022/07/16 04:03:20;;;;;;;6.03;4.30;;;28.80;1.00;;;;;;5154138;27;20026;-59
2022/07/16 04:05:46;;;;;;;6.47;4.18;;;28.80;1.00;;;;;;5151300;27;20356;-59
2022/07/16 04:08:11;;;;;;;4.38;3.80;;;28.80;1.00;;;;;;5149904;27;20165;-59
2022/07/16 04:10:37;;;;;;;4.68;4.28;;;28.90;1.00;;;;;;5145591;27;20033;-59
2022/07/16 04:13:03;;;;;;;6.10;4.15;;;28.70;1.00;;;;;;5147441;27;20034;-58
2022/07/16 04:15:29;;;;;;;5.30;4.18;;;28.80;1.00;;;;;;5145130;27;20045;-59
2022/07/16 04:17:54;;;;;;;5.43;4.50;;;28.70;1.00;;;;;;5154240;27;20483;-59
2022/07/16 04:20:20;;;;;;;7.65;5.15;;;28.60;1.00;;;;;;5149118;27;20156;-59
2022/07/16 04:22:46;;;;;;;5.43;3.80;;;28.60;1.00;;;;;;5147790;27;20023;-59
2022/07/16 04:25:14;;;;;;;5.50;4.95;;;28.50;1.00;;;;;;5150251;27;20030;-59
2022/07/16 04:27:43;;;;;;;5.57;4.78;;;28.50;1.00;;;;;;5147955;27;20023;-59
2022/07/16 04:30:10;;;;;;;6.35;4.68;;;28.40;1.00;;;;;;5145563;27;20031;-60
2022/07/16 04:32:36;;;;;;;5.72;4.63;;;28.40;1.00;;;;;;5149906;27;20030;-60
2022/07/16 04:35:02;;;;;;;4.28;3.97;;;28.50;1.00;;;;;;5150574;27;20039;-60
2022/07/16 04:37:28;;;;;;;6.40;4.32;;;28.60;1.00;;;;;;5147198;27;20018;-59
2022/07/16 04:39:53;;;;;;;7.10;4.00;;;28.60;1.00;;;;;;5142627;27;20102;-59
2022/07/16 04:42:19;;;;;;;4.50;4.10;;;28.20;1.00;;;;;;5147558;27;20456;-59
2022/07/16 04:44:45;;;;;;;6.47;4.40;;;28.20;1.00;;;;;;5147326;27;20023;-60
2022/07/16 04:47:10;;;;;;;7.35;4.15;;;28.10;1.00;;;;;;5147531;27;20023;-59
2022/07/16 04:49:36;;;;;;;6.20;4.57;;;28.10;1.00;;;;;;5145444;27;20379;-59
2022/07/16 04:52:02;;;;;;;6.25;4.60;;;28.00;1.00;;;;;;5148314;27;20030;-59
2022/07/16 04:54:27;;;;;;;9.65;4.30;;;28.10;1.00;;;;;;5149890;27;20062;-59
2022/07/16 04:56:53;;;;;;;5.22;4.28;;;28.00;1.00;;;;;;5152421;27;20413;-58
2022/07/16 04:59:19;;;;;;;6.40;4.03;;;28.10;1.00;;;;;;5151434;27;20031;-59
2022/07/16 05:01:45;;;;;;;5.97;4.22;;;28.00;1.00;;;;;;5149497;27;20023;-59
2022/07/16 05:04:10;;;;;;;4.97;3.90;;;28.20;1.00;;;;;;5152993;27;20132;-59
2022/07/16 05:06:36;;;;;;;5.05;4.05;;;28.10;1.00;;;;;;5152935;27;20121;-59
2022/07/16 05:09:02;;;;;;;8.52;4.38;;;28.10;1.00;;;;;;5149205;27;20026;-59
2022/07/16 05:11:29;;;;;;;4.97;4.18;;;28.10;1.00;;;;;;5152257;27;20074;-59
2022/07/16 05:13:54;;;;;;;6.75;4.32;;;28.20;1.00;;;;;;5151513;27;20034;-59
2022/07/16 05:16:21;;;;;;;4.57;4.13;;;28.20;1.00;;;;;;5153332;27;20027;-59
2022/07/16 05:18:46;;;;;;;4.82;4.35;;;28.20;1.00;;;;;;5151423;27;20118;-59
2022/07/16 05:21:12;;;;;;;5.50;4.22;;;28.10;1.00;;;;;;5148021;27;20172;-59
2022/07/16 05:23:38;;;;;;;6.07;4.13;;;28.20;1.00;;;;;;5147203;27;20042;-59
2022/07/16 05:26:03;;;;;;;4.78;4.30;;;28.20;1.00;;;;;;5144669;27;20118;-59
2022/07/16 05:28:29;;;;;;;6.45;4.03;;;28.20;1.00;;;;;;5146135;27;20368;-58
2022/07/16 05:30:55;;;;;;;4.82;4.00;;;28.10;1.00;;;;;;5147130;27;20042;-58
2022/07/16 05:33:20;;;;;;;4.82;3.67;;;28.10;1.00;;;;;;5149920;27;20018;-58
2022/07/16 05:35:46;;;;;;;6.18;3.65;;;28.00;1.00;;;;;;5148058;27;20046;-59
2022/07/16 05:38:12;;;;;;;6.45;4.47;;;28.10;1.00;;;;;;5149587;27;20110;-59
2022/07/16 05:40:37;;;;;;;5.88;3.63;;;28.20;1.00;;;;;;5145141;27;20472;-60
2022/07/16 05:43:04;;;;;;;7.30;4.57;;;28.20;1.00;;;;;;5152353;27;20033;-59
2022/07/16 05:45:30;;;;;;;5.00;4.57;;;28.20;1.00;;;;;;5151224;27;20475;-59
2022/07/16 05:47:56;;;;;;;5.03;4.43;;;28.30;1.00;;;;;;5150328;27;20117;-59
2022/07/16 05:50:22;;;;;;;5.38;4.57;;;28.30;1.00;;;;;;5149151;27;20098;-59
2022/07/16 05:52:47;;;;;;;6.43;3.70;;;28.20;1.00;;;;;;5149708;27;20030;-59
2022/07/16 05:55:13;;;;;;;4.97;3.95;;;28.20;1.00;;;;;;5151299;27;20026;-58
2022/07/16 05:57:39;;;;;;;4.45;4.05;;;28.30;1.00;;;;;;5151721;27;20019;-58
2022/07/16 06:00:08;;;;;;;10.45;4.45;;;28.30;1.00;;;;;;5150774;27;20423;-59
2022/07/16 06:02:34;;;;;;;5.00;4.60;;;28.30;1.00;;;;;;5149525;27;20066;-59
2022/07/16 06:05:00;;;;;;;4.03;3.72;;;28.20;1.00;;;;;;5149092;27;20125;-59
2022/07/16 06:07:25;;;;;;;7.43;4.22;;;28.20;1.00;;;;;;5150438;27;20031;-59
2022/07/16 06:09:51;;;;;;;5.15;4.15;;;28.30;1.00;;;;;;5152860;27;20026;-59
2022/07/16 06:12:17;;;;;;;4.50;4.10;;;28.30;1.00;;;;;;5149165;27;20033;-59
2022/07/16 06:14:42;;;;;;;5.45;4.72;;;28.30;1.00;;;;;;5151755;27;20463;-59
2022/07/16 06:17:08;;;;;;;4.55;4.15;;;28.30;1.00;;;;;;5148928;27;20098;-59
2022/07/16 06:19:34;;;;;;;9.32;4.80;;;28.30;1.00;;;;;;5151575;27;20034;-59
2022/07/16 06:21:59;;;;;;;7.55;4.78;;;28.40;1.00;;;;;;5148716;27;20026;-58
2022/07/16 06:24:25;;;;;;;5.95;4.32;;;28.40;1.00;;;;;;5150471;27;20026;-59
2022/07/16 06:26:50;;;;;;;6.60;4.22;;;28.50;1.00;;;;;;5151633;27;20058;-59
2022/07/16 06:29:17;;;;;;;5.72;4.38;;;28.50;1.00;;;;;;5151280;27;20011;-59
2022/07/16 06:31:43;;;;;;;5.35;4.13;;;28.50;1.00;;;;;;5148582;27;20440;-59
2022/07/16 06:34:10;;;;;;;5.30;4.60;;;28.50;1.00;;;;;;5148285;27;20019;-59
2022/07/16 06:36:35;;;;;;;4.35;3.95;;;28.50;1.00;;;;;;5146961;27;20029;-59
2022/07/16 06:39:03;;;;;;;5.25;4.55;;;28.50;1.00;;;;;;5146349;27;20014;-59
2022/07/16 06:41:29;;;;;;;4.85;3.72;;;28.60;1.00;;;;;;5140560;27;20065;-59
2022/07/16 06:43:55;;;;;;;4.57;4.13;;;28.50;1.00;;;;;;5146209;27;20694;-60
2022/07/16 06:46:20;;;;;;;5.55;4.25;;;28.60;1.00;;;;;;5140417;27;20019;-60
2022/07/16 06:48:46;;;;;;;7.57;5.57;;;28.60;1.00;;;;;;5147492;27;20030;-60
2022/07/16 06:51:13;;;;;;;4.43;3.72;;;28.70;1.00;;;;;;5142917;27;20049;-59
2022/07/16 06:53:38;;;;;;;4.88;4.07;;;28.60;1.00;;;;;;5148540;27;20432;-59
2022/07/16 06:56:06;;;;;;;5.22;3.67;;;28.60;1.00;;;;;;5151415;27;20105;-59
2022/07/16 06:58:32;;;;;;;5.93;4.53;;;28.70;1.00;;;;;;5157043;27;20167;-59
2022/07/16 07:00:59;;;;;;;5.47;4.32;;;28.70;1.00;;;;;;5155789;27;20086;-58
2022/07/16 07:03:24;;;;;;;5.65;4.00;;;28.80;1.00;;;;;;5156853;27;20023;-59
2022/07/16 07:05:50;;;;;;;6.60;4.05;;;28.90;1.00;;;;;;5155867;27;20019;-59
2022/07/16 07:08:16;;;;;;;4.20;3.90;;;28.90;1.00;;;;;;5153800;27;20407;-58
2022/07/16 07:10:41;;;;;;;6.05;4.25;;;29.00;1.00;;;;;;5152107;27;20045;-58
2022/07/16 07:13:07;;;;;;;5.15;3.72;;;29.00;1.00;;;;;;5153468;27;20035;-58
2022/07/16 07:15:33;;;;;;;6.95;4.20;;;29.00;1.00;;;;;;5152855;27;20022;-59
2022/07/16 07:17:58;;;;;;;5.68;4.47;;;29.00;1.00;;;;;;5153425;27;20168;-58
2022/07/16 07:20:24;;;;;;;5.82;4.43;;;29.00;1.00;;;;;;5150824;27;20071;-60
2022/07/16 07:22:50;;;;;;;4.00;3.67;;;29.20;1.00;;;;;;5149602;27;20031;-59
2022/07/16 07:25:16;;;;;;;4.72;4.28;;;29.10;1.00;;;;;;5150505;27;20019;-59
2022/07/16 07:27:42;;;;;;;6.60;5.18;;;29.20;1.00;;;;;;5154316;27;20014;-60
2022/07/16 07:30:08;;;;;;;7.70;4.05;;;29.20;1.00;;;;;;5152011;27;20030;-60
2022/07/16 07:32:33;;;;;;;4.30;3.60;;;29.30;1.00;;;;;;5154512;27;20027;-60
2022/07/16 07:34:59;;;;;;;4.32;3.97;;;29.40;1.00;;;;;;5151958;27;20042;-59
2022/07/16 07:37:25;;;;;;;8.73;4.95;;;29.40;1.00;;;;;;5152234;27;20780;-60
2022/07/16 07:39:51;;;;;;;8.73;4.22;;;29.40;1.00;;;;;;5153766;27;20034;-60
2022/07/16 07:42:16;;;;;;;6.20;4.72;;;29.30;1.00;;;;;;5142259;27;20126;-60
2022/07/16 07:44:42;;;;;;;6.63;4.45;;;29.30;1.00;;;;;;5150860;27;20030;-59
2022/07/16 07:47:07;;;;;;;12.73;5.10;;;29.40;1.00;;;;;;5152341;27;20397;-59
2022/07/16 07:49:33;;;;;;;11.82;4.88;;;29.40;1.00;;;;;;5153121;27;20046;-59
2022/07/16 07:51:59;;;;;;;8.38;4.45;;;29.40;1.00;;;;;;5151329;27;20114;-59
2022/07/16 07:54:25;;;;;;;5.55;4.18;;;29.40;1.00;;;;;;5147593;27;20026;-59
2022/07/16 07:56:50;;;;;;;5.45;4.65;;;29.50;1.00;;;;;;5140387;27;20087;-60
2022/07/16 07:59:16;;;;;;;4.47;4.07;;;29.40;1.00;;;;;;5137698;27;20047;-59
2022/07/16 08:01:42;;;;;;;4.60;4.30;;;29.40;1.00;;;;;;5152916;27;20022;-59
2022/07/16 08:04:27;;;;;;;4.47;3.92;;;29.50;1.00;;;;;;5149759;27;20367;-58
2022/07/16 08:06:53;;;;;;;5.40;4.13;;;29.60;1.00;;;;;;5147903;27;20114;-59
2022/07/16 08:09:18;;;;;;;4.00;3.70;;;29.70;1.00;;;;;;5149360;27;20039;-58
2022/07/16 08:11:44;;;;;;;4.75;3.92;;;29.70;1.00;;;;;;5148726;27;20472;-58
2022/07/16 08:14:10;;;;;;;4.45;4.10;;;29.70;1.00;;;;;;5142912;27;20035;-59
2022/07/16 08:16:36;;;;;;;5.40;4.38;;;29.80;1.00;;;;;;5151527;27;20118;-58
2022/07/16 08:19:01;;;;;;;7.20;3.90;;;29.70;1.00;;;;;;5150453;27;20480;-58
2022/07/16 08:21:27;;;;;;;6.55;4.28;;;29.80;1.00;;;;;;5148092;27;20031;-60
2022/07/16 08:26:37;;;;;;;7.13;4.50;;;29.80;1.00;;;;;;5152434;27;20069;-59
2022/07/16 08:29:03;;;;;;;6.65;4.85;;;30.10;1.00;;;;;;5152831;27;20062;-60
2022/07/16 08:31:28;;;;;;;4.78;4.15;;;30.20;1.00;;;;;;5147589;27;20100;-57
2022/07/16 08:33:54;;;;;;;4.88;4.22;;;30.20;1.00;;;;;;5151118;27;20053;-59
2022/07/16 08:36:20;;;;;;;5.28;4.00;;;30.50;1.00;;;;;;5149265;27;20074;-59
2022/07/16 08:38:46;;;;;;;5.47;4.72;;;30.60;1.00;;;;;;5152206;27;20391;-59
2022/07/16 08:41:12;;;;;;;5.68;4.22;;;30.70;1.00;;;;;;5148849;27;20065;-58
2022/07/16 08:43:39;;;;;;;6.57;3.97;;;30.50;1.00;;;;;;5148225;27;20131;-57
2022/07/16 08:46:04;;;;;;;3.90;3.60;;;30.50;1.00;;;;;;5149685;27;20038;-57
2022/07/16 08:48:32;;;;;;;3.97;3.67;;;30.80;1.00;;;;;;5152497;27;20018;-57
2022/07/16 08:51:00;;;;;;;6.03;4.60;;;31.20;1.00;;;;;;5150066;27;20762;-57
2022/07/16 08:53:29;;;;;;;4.88;4.40;;;30.90;1.00;;;;;;5152503;27;20034;-56
2022/07/16 08:55:55;;;;;;;4.82;4.43;;;31.00;1.00;;;;;;5152361;27;20038;-58
2022/07/16 08:58:20;;;;;;;6.45;4.00;;;31.20;1.00;;;;;;5154072;27;20031;-58
2022/07/16 09:00:46;;;;;;;7.43;4.20;;;31.10;1.00;;;;;;5151921;27;20053;-57
2022/07/16 09:03:13;;;;;;;3.75;3.45;;;31.20;1.00;;;;;;5153234;27;20111;-58
2022/07/16 09:05:40;;;;;;;4.00;3.70;;;31.40;1.00;;;;;;5149085;27;20033;-56
2022/07/16 09:08:06;;;;;;;4.60;3.90;;;31.50;1.00;;;;;;5151473;27;20217;-57
2022/07/16 09:10:37;;;;;;;4.03;3.83;;;31.70;1.00;;;;;;5153160;27;20077;-57
2022/07/16 09:13:03;;;;;;;4.13;3.78;;;31.60;1.00;;;;;;5144241;27;20033;-57
2022/07/16 09:15:37;;;;;;;4.60;4.20;;;31.30;1.00;;;;;;5138938;27;20023;-57
2022/07/16 09:18:21;;;;;;;4.28;3.88;;;31.60;1.00;;;;;;5150264;27;20088;-57
2022/07/16 09:20:58;;;;;;;5.00;4.30;;;31.80;1.00;;;;;;5150240;27;20066;-57
2022/07/16 09:23:25;;;;;;;3.85;3.45;;;31.50;1.00;;;;;;5145811;27;20023;-57
2022/07/16 09:25:54;;;;;;;4.75;4.30;;;31.40;1.00;;;;;;5145036;27;20487;-59
2022/07/16 09:28:22;;;;;;;9.65;4.28;;;31.50;1.00;;;;;;5136817;27;20422;-57
2022/07/16 09:30:48;;;;;;;4.50;3.83;;;31.50;1.00;;;;;;5138359;27;20023;-57
2022/07/16 09:33:20;;;;;;;3.97;3.60;;;31.80;1.00;;;;;;5141022;27;20043;-58
2022/07/16 09:35:47;;;;;;;4.93;3.80;;;32.00;1.00;;;;;;5149360;27;20117;-58
2022/07/16 09:38:13;;;;;;;4.20;3.80;;;31.80;1.00;;;;;;5146777;27;20479;-58
2022/07/16 09:40:41;;;;;;;5.00;4.60;;;31.80;1.00;;;;;;5142629;27;20099;-58
2022/07/16 09:43:15;;;;;;;4.50;4.07;;;31.90;1.00;;;;;;5149277;27;20039;-58
2022/07/16 09:45:43;;;;;;;3.67;3.38;;;32.00;1.00;;;;;;5151562;27;20763;-57
2022/07/16 09:48:18;;;;;;;3.78;3.47;;;31.70;1.00;;;;;;5142622;27;20523;-57
2022/07/16 09:50:44;;;;;;;4.60;3.83;;;31.70;1.00;;;;;;5144090;27;20337;-57
2022/07/16 09:53:14;;;;;;;4.65;3.97;;;32.00;1.00;;;;;;5150246;27;20053;-55
2022/07/16 09:56:03;;;;;;;4.72;4.32;;;32.30;1.00;;;;;;5144082;27;20180;-55
2022/07/16 09:58:30;;;;;;;10.35;4.30;;;32.00;1.00;;;;;;5151152;27;20379;-55
2022/07/16 10:00:57;;;;;;;4.65;3.72;;;31.80;1.00;;;;;;5150293;27;20062;-56
2022/07/16 10:03:22;;;;;;;6.55;4.32;;;31.80;1.00;;;;;;5134193;27;20030;-55
2022/07/16 10:05:48;;;;;;;6.15;4.30;;;31.80;1.00;;;;;;5145504;27;20031;-56
2022/07/16 10:08:15;;;;;;;4.45;4.07;;;31.90;1.00;;;;;;5146464;27;20033;-54
2022/07/16 10:10:41;;;;;;;4.93;3.83;;;32.20;1.00;;;;;;5152432;27;20038;-58
2022/07/16 10:13:09;;;;;;;4.47;4.07;;;32.30;1.00;;;;;;5148683;27;20015;-56
2022/07/16 10:15:35;;;;;;;4.40;3.78;;;32.40;1.00;;;;;;5152278;27;20046;-56
2022/07/16 10:18:01;;;;;;;5.15;4.65;;;32.30;1.00;;;;;;5150157;27;20023;-56
2022/07/16 10:20:33;;;;;;;5.82;4.07;;;32.20;1.00;;;;;;5151248;27;20098;-56
2022/07/16 10:22:59;;;;;;;5.63;4.35;;;32.10;1.00;;;;;;5149696;27;20406;-56
2022/07/16 10:25:26;;;;;;;9.50;8.35;;;32.20;1.00;;;;;;5142941;27;20039;-55
2022/07/16 10:27:53;;;;;;;4.97;4.57;;;32.30;1.00;;;;;;5148601;27;20019;-55
2022/07/16 10:30:21;;;;;;;4.78;4.40;;;32.50;1.00;;;;;;5156215;27;20499;-54
2022/07/16 10:33:06;;;;;;;4.47;4.00;;;32.30;1.00;;;;;;5154439;27;20026;-56
2022/07/16 10:35:48;;;;;;;4.45;4.05;;;32.40;1.00;;;;;;5156101;27;20121;-52
2022/07/16 10:38:21;;;;;;;6.72;4.05;;;32.20;1.00;;;;;;5154371;27;20509;-50
2022/07/16 10:41:09;;;;;;;5.03;4.05;;;32.30;1.00;;;;;;5152995;27;20042;-53
2022/07/16 10:43:36;;;;;;;3.78;3.55;;;32.80;1.00;;;;;;5156395;27;20030;-53
2022/07/16 10:46:04;;;;;;;4.63;3.72;;;32.70;1.00;;;;;;5152297;27;20131;-52
2022/07/16 10:48:50;;;;;;;4.22;3.85;;;32.50;1.00;;;;;;5150234;27;20023;-54
2022/07/16 10:51:16;;;;;;;5.30;4.00;;;32.80;1.00;;;;;;5155049;27;20027;-55
2022/07/16 10:54:02;;;;;;;4.43;4.13;;;32.70;1.00;;;;;;5155155;27;20476;-55
2022/07/16 10:56:36;;;;;;;4.55;4.10;;;32.50;1.00;;;;;;5150336;27;20110;-53
2022/07/16 10:59:07;;;;;;;4.57;3.88;;;32.70;1.00;;;;;;5154910;27;20480;-54
2022/07/16 11:01:35;;;;;;;5.53;3.60;;;32.80;1.00;;;;;;5155055;27;20771;-53
2022/07/16 11:04:02;;;;;;;4.47;4.18;;;33.00;1.00;;;;;;5141906;27;20023;-53
2022/07/16 11:06:28;;;;;;;4.43;4.03;;;33.20;1.00;;;;;;5151951;27;20763;-54
2022/07/16 11:08:59;;;;;;;4.22;3.92;;;33.60;1.00;;;;;;5146873;27;20053;-53
2022/07/16 11:11:50;;;;;;;3.72;3.42;;;33.40;1.00;;;;;;5152212;27;20026;-56
2022/07/16 11:14:15;;;;;;;7.25;4.43;;;33.60;1.00;;;;;;5148063;27;20382;-55
2022/07/16 11:16:49;;;;;;;4.82;4.25;;;33.60;1.00;;;;;;5144581;27;20023;-50
2022/07/16 11:19:15;;;;;;;6.18;4.70;;;33.70;1.00;;;;;;5154922;27;20194;-56
2022/07/16 11:22:00;;;;;;;4.90;4.32;;;33.80;1.00;;;;;;5153477;27;20110;-55
2022/07/16 11:24:27;;;;;;;4.28;3.97;;;33.80;1.00;;;;;;5150799;27;20156;-55
2022/07/16 11:26:54;;;;;;;4.60;4.30;;;34.00;1.00;;;;;;5153906;27;20035;-54
2022/07/16 11:29:21;;;;;;;3.90;3.65;;;33.70;1.00;;;;;;5152375;27;20097;-56
2022/07/16 11:31:48;;;;;;;5.82;4.38;;;33.90;1.00;;;;;;5154518;27;20518;-53
2022/07/16 11:34:16;;;;;;;5.05;4.28;;;34.20;1.00;;;;;;5154715;27;20521;-54
2022/07/16 11:36:44;;;;;;;5.05;4.03;;;35.40;1.00;;;;;;5154650;27;22540;-54
2022/07/16 11:39:27;;;;;;;4.55;4.28;;;37.30;1.00;;;;;;5152761;27;20467;-56
2022/07/16 11:41:55;;;;;;;4.47;4.03;;;38.00;1.00;;;;;;5151616;27;20033;-55
2022/07/16 11:44:22;;;;;;;5.90;4.45;;;38.30;1.00;;;;;;5154780;27;20475;-56
2022/07/16 11:46:53;;;;;;;5.82;4.57;;;38.50;1.00;;;;;;5154364;27;20039;-54
2022/07/16 11:49:24;;;;;;;6.25;4.68;;;38.70;1.00;;;;;;5154765;27;20042;-57
2022/07/16 11:51:50;;;;;;;6.07;5.00;;;41.50;1.00;;;;;;5153048;27;20528;-57
2022/07/16 11:54:16;;;;;;;5.40;4.90;;;42.40;1.00;;;;;;5151257;27;20073;-56
2022/07/16 11:56:42;;;;;;;5.75;4.90;;;43.00;1.00;;;;;;5153754;27;20037;-57
2022/07/16 11:59:25;;;;;;;5.05;4.57;;;42.60;1.00;;;;;;5145425;27;20027;-57
2022/07/16 12:01:59;;;;;;;5.13;4.70;;;42.10;1.00;;;;;;5140263;27;20037;-56
2022/07/16 12:04:42;;;;;;;4.78;4.47;;;42.20;1.00;;;;;;5152846;27;20038;-56
2022/07/16 12:07:12;;;;;;;5.40;5.00;;;43.50;1.00;;;;;;5148296;27;20019;-54
2022/07/16 12:09:40;;;;;;;5.85;5.35;;;44.40;1.00;;;;;;5155164;27;20779;-57
2022/07/16 12:12:11;;;;;;;5.57;5.18;;;45.10;1.00;;;;;;5154321;27;20023;-56
2022/07/16 12:14:46;;;;;;;5.43;5.13;;;44.90;1.00;;;;;;5144981;27;20496;-57
2022/07/16 12:17:27;;;;;;;5.75;5.13;;;43.40;1.00;;;;;;5151059;27;20030;-57
2022/07/16 12:20:05;;;;;;;6.30;5.90;;;42.10;1.00;;;;;;5142166;27;20091;-56
2022/07/16 12:22:44;;;;;;;6.68;6.07;;;43.10;1.00;;;;;;5154236;27;20027;-57
2022/07/16 12:25:42;;;;;;;6.05;5.65;;;43.50;1.00;;;;;;5155093;27;20502;-57
2022/07/16 12:28:08;;;;;;;6.18;5.72;;;45.40;1.00;;;;;;5153512;27;20397;-57
2022/07/16 12:30:42;;;;;;;6.70;6.20;;;46.30;1.00;;;;;;5154052;27;20027;-56
2022/07/16 12:36:36;;;;;;;6.75;6.35;;;48.00;1.00;;;;;;5131030;27;20203;-56
2022/07/16 12:39:07;;;;;;;6.95;6.45;;;48.10;1.00;;;;;;5153936;27;20039;-57
2022/07/16 12:41:36;;;;;;;7.85;6.68;;;48.00;1.00;;;;;;5154732;27;20357;-58
2022/07/16 12:44:04;;;;;;;7.18;6.63;;;46.40;1.00;;;;;;5153610;27;20402;-58
2022/07/16 12:46:31;;;;;;;8.15;7.25;;;43.80;1.00;;;;;;5154843;27;20349;-57
2022/07/16 12:48:58;;;;;;;7.18;6.68;;;42.80;1.00;;;;;;5138453;27;20460;-58
2022/07/16 12:51:27;;;;;;;8.25;7.55;;;43.30;1.00;;;;;;5153819;27;20027;-58
2022/07/16 12:53:53;;;;;;;7.78;7.28;;;43.60;1.00;;;;;;5152114;27;20369;-57
2022/07/16 12:59:06;;;;;;;7.65;7.15;;;45.50;1.00;;;;;;5153528;27;20400;-58
2022/07/16 13:01:31;;;;;;;7.90;7.20;;;44.80;1.00;;;;;;5154246;27;20034;-58
2022/07/16 13:03:58;;;;;;;7.80;7.20;;;44.20;1.00;;;;;;5153234;27;20115;-57
2022/07/16 13:06:25;;;;;;;8.75;8.07;;;43.40;1.00;;;;;;5154180;27;20041;-57
2022/07/16 13:08:51;;;;;;;7.82;7.00;;;42.90;1.00;;;;;;5152953;27;20030;-58
2022/07/16 13:11:18;;;;;;;8.10;7.40;;;42.30;1.00;;;;;;5153992;27;20376;-58
2022/07/16 13:13:45;;;;;;;7.82;7.20;;;41.80;1.00;;;;;;5151653;27;20018;-58